sensor_id;sensor_type;location;lat;lon;timestamp;temperature;humidity
45319;DHT22;31057;48.498;32.260;2024-02-23T00:01:17;3.30;99.90
45319;DHT22;31057;48.498;32.260;2024-02-23T00:03:19;3.40;99.90
45319;DHT22;31057;48.498;32.260;2024-02-23T00:05:21;3.30;99.90
45319;DHT22;31057;48.498;32.260;2024-02-23T00:07:23;3.30;99.90
45319;DHT22;31057;48.498;32.260;2024-02-23T00:09:25;3.30;99.90
45319;DHT22;31057;48.498;32.260;2024-02-23T00:11:28;3.30;99.90
45319;DHT22;31057;48.498;32.260;2024-02-23T00:13:31;3.30;99.90
45319;DHT22;31057;48.498;32.260;2024-02-23T00:15:32;3.20;99.90
45319;DHT22;31057;48.498;32.260;2024-02-23T00:17:34;3.20;99.90
45319;DHT22;31057;48.498;32.260;2024-02-23T00:19:37;3.40;99.90
45319;DHT22;31057;48.498;32.260;2024-02-23T00:21:39;3.30;99.90
45319;DHT22;31057;48.498;32.260;2024-02-23T00:23:41;3.30;99.90
45319;DHT22;31057;48.498;32.260;2024-02-23T00:25:43;3.30;99.90
45319;DHT22;31057;48.498;32.260;2024-02-23T00:27:45;3.30;99.90
45319;DHT22;31057;48.498;32.260;2024-02-23T00:29:48;3.20;99.90
45319;DHT22;31057;48.498;32.260;2024-02-23T00:31:50;3.20;99.90
45319;DHT22;31057;48.498;32.260;2024-02-23T00:33:52;3.30;99.90
45319;DHT22;31057;48.498;32.260;2024-02-23T00:35:54;3.20;99.90
45319;DHT22;31057;48.498;32.260;2024-02-23T00:37:56;3.20;99.90
45319;DHT22;31057;48.498;32.260;2024-02-23T00:39:58;3.20;99.90
45319;DHT22;31057;48.498;32.260;2024-02-23T00:42:00;3.20;99.90
45319;DHT22;31057;48.498;32.260;2024-02-23T00:44:02;3.20;99.90
45319;DHT22;31057;48.498;32.260;2024-02-23T00:46:05;3.20;99.90
45319;DHT22;31057;48.498;32.260;2024-02-23T00:48:07;3.20;99.90
45319;DHT22;31057;48.498;32.260;2024-02-23T00:50:09;3.20;99.90
45319;DHT22;31057;48.498;32.260;2024-02-23T00:52:12;3.20;99.90
45319;DHT22;31057;48.498;32.260;2024-02-23T00:54:14;3.20;99.90
45319;DHT22;31057;48.498;32.260;2024-02-23T00:56:16;3.30;99.90
45319;DHT22;31057;48.498;32.260;2024-02-23T00:58:18;3.20;99.90
45319;DHT22;31057;48.498;32.260;2024-02-23T01:00:20;3.20;99.90
45319;DHT22;31057;48.498;32.260;2024-02-23T01:02:22;3.20;99.90
45319;DHT22;31057;48.498;32.260;2024-02-23T01:04:24;3.30;99.90
45319;DHT22;31057;48.498;32.260;2024-02-23T01:06:26;3.20;99.90
45319;DHT22;31057;48.498;32.260;2024-02-23T01:08:31;3.20;99.90
45319;DHT22;31057;48.498;32.260;2024-02-23T01:10:33;3.20;99.90
45319;DHT22;31057;48.498;32.260;2024-02-23T01:12:35;3.20;99.90
45319;DHT22;31057;48.498;32.260;2024-02-23T01:14:37;3.20;99.90
45319;DHT22;31057;48.498;32.260;2024-02-23T01:16:39;3.20;99.90
45319;DHT22;31057;48.498;32.260;2024-02-23T01:18:41;3.20;99.90
45319;DHT22;31057;48.498;32.260;2024-02-23T01:20:43;3.20;99.90
45319;DHT22;31057;48.498;32.260;2024-02-23T01:22:45;3.30;99.90
45319;DHT22;31057;48.498;32.260;2024-02-23T01:24:48;3.30;99.90
45319;DHT22;31057;48.498;32.260;2024-02-23T01:26:50;3.30;99.90
45319;DHT22;31057;48.498;32.260;2024-02-23T01:28:52;3.40;99.90
45319;DHT22;31057;48.498;32.260;2024-02-23T01:30:53;3.40;99.90
45319;DHT22;31057;48.498;32.260;2024-02-23T01:32:55;3.40;99.90
45319;DHT22;31057;48.498;32.260;2024-02-23T01:34:57;3.40;99.90
45319;DHT22;31057;48.498;32.260;2024-02-23T01:36:59;3.40;99.90
45319;DHT22;31057;48.498;32.260;2024-02-23T01:39:01;3.40;99.90
45319;DHT22;31057;48.498;32.260;2024-02-23T01:41:03;3.40;99.90
45319;DHT22;31057;48.498;32.260;2024-02-23T01:43:06;3.40;99.90
45319;DHT22;31057;48.498;32.260;2024-02-23T01:45:08;3.40;99.90
45319;DHT22;31057;48.498;32.260;2024-02-23T01:47:10;3.40;99.90
45319;DHT22;31057;48.498;32.260;2024-02-23T01:49:12;3.40;99.90
45319;DHT22;31057;48.498;32.260;2024-02-23T01:51:16;3.50;99.90
45319;DHT22;31057;48.498;32.260;2024-02-23T01:53:18;3.50;99.90
45319;DHT22;31057;48.498;32.260;2024-02-23T01:55:22;3.50;99.90
45319;DHT22;31057;48.498;32.260;2024-02-23T01:57:24;3.50;99.90
45319;DHT22;31057;48.498;32.260;2024-02-23T01:59:46;3.50;99.90
45319;DHT22;31057;48.498;32.260;2024-02-23T02:01:48;3.50;99.90
45319;DHT22;31057;48.498;32.260;2024-02-23T02:03:50;3.60;99.90
45319;DHT22;31057;48.498;32.260;2024-02-23T02:05:53;3.60;99.90
45319;DHT22;31057;48.498;32.260;2024-02-23T02:07:56;3.60;99.90
45319;DHT22;31057;48.498;32.260;2024-02-23T02:10:02;3.60;99.90
45319;DHT22;31057;48.498;32.260;2024-02-23T02:12:05;3.60;99.90
45319;DHT22;31057;48.498;32.260;2024-02-23T02:14:07;3.60;99.90
45319;DHT22;31057;48.498;32.260;2024-02-23T02:16:09;3.60;99.90
45319;DHT22;31057;48.498;32.260;2024-02-23T02:18:12;3.60;99.90
45319;DHT22;31057;48.498;32.260;2024-02-23T02:20:14;3.50;99.90
45319;DHT22;31057;48.498;32.260;2024-02-23T02:22:20;3.50;99.90
45319;DHT22;31057;48.498;32.260;2024-02-23T02:24:22;3.60;99.90
45319;DHT22;31057;48.498;32.260;2024-02-23T02:26:24;3.60;99.90
45319;DHT22;31057;48.498;32.260;2024-02-23T02:28:26;3.60;99.90
45319;DHT22;31057;48.498;32.260;2024-02-23T02:30:28;3.70;99.90
45319;DHT22;31057;48.498;32.260;2024-02-23T02:32:30;3.70;99.90
45319;DHT22;31057;48.498;32.260;2024-02-23T02:34:37;3.70;99.90
45319;DHT22;31057;48.498;32.260;2024-02-23T02:36:39;3.70;99.90
45319;DHT22;31057;48.498;32.260;2024-02-23T02:38:41;3.80;99.90
45319;DHT22;31057;48.498;32.260;2024-02-23T02:40:43;3.80;99.90
45319;DHT22;31057;48.498;32.260;2024-02-23T02:42:46;3.90;99.90
45319;DHT22;31057;48.498;32.260;2024-02-23T02:44:47;3.90;99.90
45319;DHT22;31057;48.498;32.260;2024-02-23T02:46:49;3.80;99.90
45319;DHT22;31057;48.498;32.260;2024-02-23T02:48:52;3.90;99.90
45319;DHT22;31057;48.498;32.260;2024-02-23T02:50:54;3.90;99.90
45319;DHT22;31057;48.498;32.260;2024-02-23T02:52:56;3.90;99.90
45319;DHT22;31057;48.498;32.260;2024-02-23T02:54:59;3.90;99.90
45319;DHT22;31057;48.498;32.260;2024-02-23T02:57:01;3.90;99.90
45319;DHT22;31057;48.498;32.260;2024-02-23T02:59:03;3.90;99.90
45319;DHT22;31057;48.498;32.260;2024-02-23T03:01:05;3.90;99.90
45319;DHT22;31057;48.498;32.260;2024-02-23T03:03:07;3.90;99.90
45319;DHT22;31057;48.498;32.260;2024-02-23T03:05:09;3.90;99.90
45319;DHT22;31057;48.498;32.260;2024-02-23T03:07:11;3.90;99.90
45319;DHT22;31057;48.498;32.260;2024-02-23T03:09:13;3.90;99.90
45319;DHT22;31057;48.498;32.260;2024-02-23T03:11:15;3.90;99.90
45319;DHT22;31057;48.498;32.260;2024-02-23T03:13:17;3.90;99.90
45319;DHT22;31057;48.498;32.260;2024-02-23T03:15:19;3.90;99.90
45319;DHT22;31057;48.498;32.260;2024-02-23T03:17:21;3.90;99.90
45319;DHT22;31057;48.498;32.260;2024-02-23T03:19:23;3.90;99.90
45319;DHT22;31057;48.498;32.260;2024-02-23T03:21:25;3.80;99.90
45319;DHT22;31057;48.498;32.260;2024-02-23T03:23:27;3.90;99.90
45319;DHT22;31057;48.498;32.260;2024-02-23T03:25:30;3.90;99.90
45319;DHT22;31057;48.498;32.260;2024-02-23T03:27:32;3.90;99.90
45319;DHT22;31057;48.498;32.260;2024-02-23T03:29:34;3.90;99.90
45319;DHT22;31057;48.498;32.260;2024-02-23T03:31:36;3.90;99.90
45319;DHT22;31057;48.498;32.260;2024-02-23T03:33:38;4.00;99.90
45319;DHT22;31057;48.498;32.260;2024-02-23T03:35:41;3.90;99.90
45319;DHT22;31057;48.498;32.260;2024-02-23T03:37:42;4.00;99.90
45319;DHT22;31057;48.498;32.260;2024-02-23T03:39:44;4.00;99.90
45319;DHT22;31057;48.498;32.260;2024-02-23T03:41:46;4.00;99.90
45319;DHT22;31057;48.498;32.260;2024-02-23T03:43:48;3.90;99.90
45319;DHT22;31057;48.498;32.260;2024-02-23T03:45:50;3.90;99.90
45319;DHT22;31057;48.498;32.260;2024-02-23T03:47:52;3.90;99.90
45319;DHT22;31057;48.498;32.260;2024-02-23T03:49:54;3.80;99.90
45319;DHT22;31057;48.498;32.260;2024-02-23T03:51:56;3.70;99.90
45319;DHT22;31057;48.498;32.260;2024-02-23T03:53:58;3.70;99.90
45319;DHT22;31057;48.498;32.260;2024-02-23T03:56:00;3.70;99.90
45319;DHT22;31057;48.498;32.260;2024-02-23T03:58:02;3.70;99.90
45319;DHT22;31057;48.498;32.260;2024-02-23T04:00:05;3.70;99.90
45319;DHT22;31057;48.498;32.260;2024-02-23T04:02:08;3.70;99.90
45319;DHT22;31057;48.498;32.260;2024-02-23T04:04:10;3.70;99.90
45319;DHT22;31057;48.498;32.260;2024-02-23T04:06:12;3.70;99.90
45319;DHT22;31057;48.498;32.260;2024-02-23T04:08:14;3.70;99.90
45319;DHT22;31057;48.498;32.260;2024-02-23T04:10:16;3.60;99.90
45319;DHT22;31057;48.498;32.260;2024-02-23T04:12:18;3.60;99.90
45319;DHT22;31057;48.498;32.260;2024-02-23T04:14:21;3.60;99.90
45319;DHT22;31057;48.498;32.260;2024-02-23T04:16:24;3.60;99.90
45319;DHT22;31057;48.498;32.260;2024-02-23T04:18:29;3.60;99.90
45319;DHT22;31057;48.498;32.260;2024-02-23T04:20:31;3.60;99.90
45319;DHT22;31057;48.498;32.260;2024-02-23T04:22:34;3.60;99.90
45319;DHT22;31057;48.498;32.260;2024-02-23T04:24:38;3.60;99.90
45319;DHT22;31057;48.498;32.260;2024-02-23T04:26:40;3.60;99.90
45319;DHT22;31057;48.498;32.260;2024-02-23T04:28:42;3.60;99.90
45319;DHT22;31057;48.498;32.260;2024-02-23T04:30:44;3.60;99.90
45319;DHT22;31057;48.498;32.260;2024-02-23T04:32:46;3.70;99.90
45319;DHT22;31057;48.498;32.260;2024-02-23T04:34:49;3.60;99.90
45319;DHT22;31057;48.498;32.260;2024-02-23T04:36:51;3.60;99.90
45319;DHT22;31057;48.498;32.260;2024-02-23T04:38:53;3.60;99.90
45319;DHT22;31057;48.498;32.260;2024-02-23T04:40:55;3.70;99.90
45319;DHT22;31057;48.498;32.260;2024-02-23T04:42:58;3.70;99.90
45319;DHT22;31057;48.498;32.260;2024-02-23T04:45:00;3.70;99.90
45319;DHT22;31057;48.498;32.260;2024-02-23T04:47:02;3.80;99.90
45319;DHT22;31057;48.498;32.260;2024-02-23T04:49:04;3.70;99.90
45319;DHT22;31057;48.498;32.260;2024-02-23T04:51:06;3.70;99.90
45319;DHT22;31057;48.498;32.260;2024-02-23T04:53:11;3.90;99.90
45319;DHT22;31057;48.498;32.260;2024-02-23T04:55:13;3.80;99.90
45319;DHT22;31057;48.498;32.260;2024-02-23T04:57:15;3.90;99.90
45319;DHT22;31057;48.498;32.260;2024-02-23T04:59:17;3.90;99.90
45319;DHT22;31057;48.498;32.260;2024-02-23T05:01:19;4.00;99.90
45319;DHT22;31057;48.498;32.260;2024-02-23T05:03:21;3.90;99.90
45319;DHT22;31057;48.498;32.260;2024-02-23T05:05:23;3.80;99.90
45319;DHT22;31057;48.498;32.260;2024-02-23T05:07:25;4.00;99.90
45319;DHT22;31057;48.498;32.260;2024-02-23T05:09:27;3.90;99.90
45319;DHT22;31057;48.498;32.260;2024-02-23T05:11:29;3.90;99.90
45319;DHT22;31057;48.498;32.260;2024-02-23T05:13:31;3.90;99.90
45319;DHT22;31057;48.498;32.260;2024-02-23T05:15:33;4.00;99.90
45319;DHT22;31057;48.498;32.260;2024-02-23T05:17:35;4.00;99.90
45319;DHT22;31057;48.498;32.260;2024-02-23T05:19:37;4.00;99.90
45319;DHT22;31057;48.498;32.260;2024-02-23T05:21:39;4.00;99.90
45319;DHT22;31057;48.498;32.260;2024-02-23T05:23:41;4.10;99.90
45319;DHT22;31057;48.498;32.260;2024-02-23T05:25:43;4.10;99.90
45319;DHT22;31057;48.498;32.260;2024-02-23T05:27:45;4.10;99.90
45319;DHT22;31057;48.498;32.260;2024-02-23T05:29:47;4.10;99.90
45319;DHT22;31057;48.498;32.260;2024-02-23T05:31:49;4.20;99.90
45319;DHT22;31057;48.498;32.260;2024-02-23T05:33:52;4.40;99.90
45319;DHT22;31057;48.498;32.260;2024-02-23T05:35:54;4.30;99.90
45319;DHT22;31057;48.498;32.260;2024-02-23T05:37:55;4.30;99.90
45319;DHT22;31057;48.498;32.260;2024-02-23T05:39:58;4.30;99.90
45319;DHT22;31057;48.498;32.260;2024-02-23T05:42:01;4.30;99.90
45319;DHT22;31057;48.498;32.260;2024-02-23T05:44:07;4.30;99.90
45319;DHT22;31057;48.498;32.260;2024-02-23T05:46:09;4.30;99.90
45319;DHT22;31057;48.498;32.260;2024-02-23T05:48:11;4.30;99.90
45319;DHT22;31057;48.498;32.260;2024-02-23T05:50:13;4.30;99.90
45319;DHT22;31057;48.498;32.260;2024-02-23T05:52:15;4.30;99.90
45319;DHT22;31057;48.498;32.260;2024-02-23T05:54:17;4.30;99.90
45319;DHT22;31057;48.498;32.260;2024-02-23T05:56:19;4.30;99.90
45319;DHT22;31057;48.498;32.260;2024-02-23T05:58:21;4.30;99.90
45319;DHT22;31057;48.498;32.260;2024-02-23T06:00:23;4.30;99.90
45319;DHT22;31057;48.498;32.260;2024-02-23T06:02:26;4.30;99.90
45319;DHT22;31057;48.498;32.260;2024-02-23T06:04:28;4.30;99.90
45319;DHT22;31057;48.498;32.260;2024-02-23T06:06:30;4.30;99.90
45319;DHT22;31057;48.498;32.260;2024-02-23T06:08:33;4.30;99.90
45319;DHT22;31057;48.498;32.260;2024-02-23T06:10:35;4.30;99.90
45319;DHT22;31057;48.498;32.260;2024-02-23T06:12:39;4.30;99.90
45319;DHT22;31057;48.498;32.260;2024-02-23T06:14:41;4.30;99.90
45319;DHT22;31057;48.498;32.260;2024-02-23T06:16:43;4.30;99.90
45319;DHT22;31057;48.498;32.260;2024-02-23T06:18:45;4.30;99.90
45319;DHT22;31057;48.498;32.260;2024-02-23T06:20:49;4.40;99.90
45319;DHT22;31057;48.498;32.260;2024-02-23T06:22:51;4.30;99.90
45319;DHT22;31057;48.498;32.260;2024-02-23T06:24:53;4.30;99.90
45319;DHT22;31057;48.498;32.260;2024-02-23T06:26:55;4.40;99.90
45319;DHT22;31057;48.498;32.260;2024-02-23T06:28:57;4.30;99.90
45319;DHT22;31057;48.498;32.260;2024-02-23T06:31:00;4.40;99.90
45319;DHT22;31057;48.498;32.260;2024-02-23T06:33:02;4.40;99.90
45319;DHT22;31057;48.498;32.260;2024-02-23T06:35:04;4.40;99.90
45319;DHT22;31057;48.498;32.260;2024-02-23T06:37:08;4.40;99.90
45319;DHT22;31057;48.498;32.260;2024-02-23T06:39:10;4.40;99.90
45319;DHT22;31057;48.498;32.260;2024-02-23T06:41:12;4.50;99.90
45319;DHT22;31057;48.498;32.260;2024-02-23T06:43:14;4.50;99.90
45319;DHT22;31057;48.498;32.260;2024-02-23T06:45:16;4.50;99.90
45319;DHT22;31057;48.498;32.260;2024-02-23T06:47:18;4.50;99.90
45319;DHT22;31057;48.498;32.260;2024-02-23T06:49:20;4.60;99.90
45319;DHT22;31057;48.498;32.260;2024-02-23T06:51:22;4.60;99.90
45319;DHT22;31057;48.498;32.260;2024-02-23T06:53:24;4.60;99.90
45319;DHT22;31057;48.498;32.260;2024-02-23T06:55:26;4.60;99.90
45319;DHT22;31057;48.498;32.260;2024-02-23T06:57:28;4.60;99.90
45319;DHT22;31057;48.498;32.260;2024-02-23T06:59:32;4.70;99.90
45319;DHT22;31057;48.498;32.260;2024-02-23T07:01:34;4.70;99.90
45319;DHT22;31057;48.498;32.260;2024-02-23T07:03:41;4.60;99.90
45319;DHT22;31057;48.498;32.260;2024-02-23T07:05:45;4.70;99.90
45319;DHT22;31057;48.498;32.260;2024-02-23T07:07:49;4.70;99.90
45319;DHT22;31057;48.498;32.260;2024-02-23T07:09:51;4.70;99.90
45319;DHT22;31057;48.498;32.260;2024-02-23T07:11:53;4.80;99.90
45319;DHT22;31057;48.498;32.260;2024-02-23T07:13:55;4.80;99.90
45319;DHT22;31057;48.498;32.260;2024-02-23T07:15:58;4.80;99.90
45319;DHT22;31057;48.498;32.260;2024-02-23T07:18:01;4.90;99.90
45319;DHT22;31057;48.498;32.260;2024-02-23T07:20:03;4.90;99.90
45319;DHT22;31057;48.498;32.260;2024-02-23T07:22:08;4.90;99.90
45319;DHT22;31057;48.498;32.260;2024-02-23T07:24:09;5.00;99.90
45319;DHT22;31057;48.498;32.260;2024-02-23T07:26:11;5.00;99.90
45319;DHT22;31057;48.498;32.260;2024-02-23T07:28:13;4.90;99.90
45319;DHT22;31057;48.498;32.260;2024-02-23T07:30:20;4.90;99.90
45319;DHT22;31057;48.498;32.260;2024-02-23T07:32:22;5.00;99.90
45319;DHT22;31057;48.498;32.260;2024-02-23T07:34:24;4.90;99.90
45319;DHT22;31057;48.498;32.260;2024-02-23T07:36:27;5.00;99.90
45319;DHT22;31057;48.498;32.260;2024-02-23T07:38:29;5.10;99.90
45319;DHT22;31057;48.498;32.260;2024-02-23T07:40:31;5.00;99.90
45319;DHT22;31057;48.498;32.260;2024-02-23T07:42:33;5.00;99.90
45319;DHT22;31057;48.498;32.260;2024-02-23T07:44:37;5.10;99.90
45319;DHT22;31057;48.498;32.260;2024-02-23T07:46:39;5.00;99.90
45319;DHT22;31057;48.498;32.260;2024-02-23T07:48:41;5.20;99.90
45319;DHT22;31057;48.498;32.260;2024-02-23T07:50:43;5.30;99.90
45319;DHT22;31057;48.498;32.260;2024-02-23T07:52:45;5.10;99.90
45319;DHT22;31057;48.498;32.260;2024-02-23T07:54:47;5.20;99.90
45319;DHT22;31057;48.498;32.260;2024-02-23T07:56:50;5.20;99.90
45319;DHT22;31057;48.498;32.260;2024-02-23T07:58:52;5.20;99.90
45319;DHT22;31057;48.498;32.260;2024-02-23T08:00:54;5.20;99.90
45319;DHT22;31057;48.498;32.260;2024-02-23T08:02:56;5.20;99.90
45319;DHT22;31057;48.498;32.260;2024-02-23T08:05:02;5.40;99.90
45319;DHT22;31057;48.498;32.260;2024-02-23T08:07:06;5.40;99.90
45319;DHT22;31057;48.498;32.260;2024-02-23T08:09:08;5.30;99.90
45319;DHT22;31057;48.498;32.260;2024-02-23T08:11:11;5.40;99.90
45319;DHT22;31057;48.498;32.260;2024-02-23T08:13:13;5.50;99.90
45319;DHT22;31057;48.498;32.260;2024-02-23T08:15:15;5.50;99.90
45319;DHT22;31057;48.498;32.260;2024-02-23T08:17:17;5.50;99.90
45319;DHT22;31057;48.498;32.260;2024-02-23T08:19:19;5.50;99.90
45319;DHT22;31057;48.498;32.260;2024-02-23T08:21:20;5.50;99.90
45319;DHT22;31057;48.498;32.260;2024-02-23T08:23:23;5.50;99.90
45319;DHT22;31057;48.498;32.260;2024-02-23T08:25:26;5.50;99.90
45319;DHT22;31057;48.498;32.260;2024-02-23T08:27:30;5.50;99.90
45319;DHT22;31057;48.498;32.260;2024-02-23T08:29:32;5.60;99.90
45319;DHT22;31057;48.498;32.260;2024-02-23T08:31:34;5.60;99.90
45319;DHT22;31057;48.498;32.260;2024-02-23T08:33:40;5.60;99.90
45319;DHT22;31057;48.498;32.260;2024-02-23T08:35:42;5.60;99.90
45319;DHT22;31057;48.498;32.260;2024-02-23T08:37:44;5.50;99.90
45319;DHT22;31057;48.498;32.260;2024-02-23T08:39:46;5.50;99.90
45319;DHT22;31057;48.498;32.260;2024-02-23T08:41:48;5.70;99.90
45319;DHT22;31057;48.498;32.260;2024-02-23T08:43:53;5.70;99.90
45319;DHT22;31057;48.498;32.260;2024-02-23T08:45:57;5.80;99.90
45319;DHT22;31057;48.498;32.260;2024-02-23T08:48:05;5.80;99.90
45319;DHT22;31057;48.498;32.260;2024-02-23T08:50:09;5.90;99.90
45319;DHT22;31057;48.498;32.260;2024-02-23T08:52:11;6.00;99.90
45319;DHT22;31057;48.498;32.260;2024-02-23T08:54:13;6.20;99.90
45319;DHT22;31057;48.498;32.260;2024-02-23T08:56:15;6.00;99.90
45319;DHT22;31057;48.498;32.260;2024-02-23T08:58:18;6.00;99.90
45319;DHT22;31057;48.498;32.260;2024-02-23T09:00:20;6.30;99.90
45319;DHT22;31057;48.498;32.260;2024-02-23T09:02:22;6.30;99.90
45319;DHT22;31057;48.498;32.260;2024-02-23T09:04:24;6.50;99.90
45319;DHT22;31057;48.498;32.260;2024-02-23T09:06:26;6.60;99.90
45319;DHT22;31057;48.498;32.260;2024-02-23T09:08:28;6.70;99.90
45319;DHT22;31057;48.498;32.260;2024-02-23T09:10:30;6.60;99.90
45319;DHT22;31057;48.498;32.260;2024-02-23T09:12:32;6.70;99.90
45319;DHT22;31057;48.498;32.260;2024-02-23T09:14:34;6.80;99.90
45319;DHT22;31057;48.498;32.260;2024-02-23T09:16:39;6.80;99.90
45319;DHT22;31057;48.498;32.260;2024-02-23T09:18:41;6.90;99.90
45319;DHT22;31057;48.498;32.260;2024-02-23T09:20:43;6.80;99.90
45319;DHT22;31057;48.498;32.260;2024-02-23T09:22:45;6.90;99.90
45319;DHT22;31057;48.498;32.260;2024-02-23T09:24:47;6.90;99.90
45319;DHT22;31057;48.498;32.260;2024-02-23T09:26:49;6.80;99.90
45319;DHT22;31057;48.498;32.260;2024-02-23T09:28:51;6.80;99.90
45319;DHT22;31057;48.498;32.260;2024-02-23T09:30:53;7.00;99.90
45319;DHT22;31057;48.498;32.260;2024-02-23T09:32:59;7.00;99.90
45319;DHT22;31057;48.498;32.260;2024-02-23T09:35:01;7.20;99.90
45319;DHT22;31057;48.498;32.260;2024-02-23T09:37:05;7.10;99.90
45319;DHT22;31057;48.498;32.260;2024-02-23T09:39:07;7.10;99.90
45319;DHT22;31057;48.498;32.260;2024-02-23T09:41:15;7.00;99.90
45319;DHT22;31057;48.498;32.260;2024-02-23T09:43:22;7.00;99.90
45319;DHT22;31057;48.498;32.260;2024-02-23T09:45:27;7.00;99.90
45319;DHT22;31057;48.498;32.260;2024-02-23T09:47:31;6.90;99.90
45319;DHT22;31057;48.498;32.260;2024-02-23T09:49:40;6.80;99.90
45319;DHT22;31057;48.498;32.260;2024-02-23T09:51:43;6.80;99.90
45319;DHT22;31057;48.498;32.260;2024-02-23T09:53:45;6.90;99.90
45319;DHT22;31057;48.498;32.260;2024-02-23T09:55:50;7.00;99.90
45319;DHT22;31057;48.498;32.260;2024-02-23T09:57:55;7.20;99.90
45319;DHT22;31057;48.498;32.260;2024-02-23T09:59:59;7.40;99.90
45319;DHT22;31057;48.498;32.260;2024-02-23T10:02:09;7.50;99.90
45319;DHT22;31057;48.498;32.260;2024-02-23T10:04:14;7.70;99.90
45319;DHT22;31057;48.498;32.260;2024-02-23T10:06:16;7.90;99.90
45319;DHT22;31057;48.498;32.260;2024-02-23T10:08:18;7.90;99.90
45319;DHT22;31057;48.498;32.260;2024-02-23T10:10:38;7.70;99.90
45319;DHT22;31057;48.498;32.260;2024-02-23T10:12:41;7.80;99.90
45319;DHT22;31057;48.498;32.260;2024-02-23T10:14:43;7.80;99.90
45319;DHT22;31057;48.498;32.260;2024-02-23T10:16:45;7.80;99.90
45319;DHT22;31057;48.498;32.260;2024-02-23T10:18:48;8.00;99.90
45319;DHT22;31057;48.498;32.260;2024-02-23T10:20:50;8.00;99.90
45319;DHT22;31057;48.498;32.260;2024-02-23T10:22:54;8.10;99.90
45319;DHT22;31057;48.498;32.260;2024-02-23T10:24:56;8.10;99.90
45319;DHT22;31057;48.498;32.260;2024-02-23T10:27:00;8.20;99.90
45319;DHT22;31057;48.498;32.260;2024-02-23T10:29:04;8.20;99.90
45319;DHT22;31057;48.498;32.260;2024-02-23T10:31:06;8.30;99.90
45319;DHT22;31057;48.498;32.260;2024-02-23T10:33:14;8.20;99.90
45319;DHT22;31057;48.498;32.260;2024-02-23T10:35:16;8.20;99.90
45319;DHT22;31057;48.498;32.260;2024-02-23T10:37:21;8.20;99.90
45319;DHT22;31057;48.498;32.260;2024-02-23T10:39:24;8.20;99.90
45319;DHT22;31057;48.498;32.260;2024-02-23T10:41:28;8.20;99.90
45319;DHT22;31057;48.498;32.260;2024-02-23T10:43:38;8.20;99.90
45319;DHT22;31057;48.498;32.260;2024-02-23T10:45:42;8.30;99.90
45319;DHT22;31057;48.498;32.260;2024-02-23T10:47:45;8.30;99.90
45319;DHT22;31057;48.498;32.260;2024-02-23T10:49:48;8.20;99.90
45319;DHT22;31057;48.498;32.260;2024-02-23T10:51:51;8.30;99.90
45319;DHT22;31057;48.498;32.260;2024-02-23T10:53:53;8.30;99.90
45319;DHT22;31057;48.498;32.260;2024-02-23T10:55:58;8.50;99.90
45319;DHT22;31057;48.498;32.260;2024-02-23T10:58:02;8.50;99.90
45319;DHT22;31057;48.498;32.260;2024-02-23T11:00:06;8.50;99.90
45319;DHT22;31057;48.498;32.260;2024-02-23T11:02:11;8.40;99.90
45319;DHT22;31057;48.498;32.260;2024-02-23T11:04:22;8.40;99.90
45319;DHT22;31057;48.498;32.260;2024-02-23T11:06:28;8.50;99.90
45319;DHT22;31057;48.498;32.260;2024-02-23T11:08:32;8.50;99.90
45319;DHT22;31057;48.498;32.260;2024-02-23T11:11:10;8.60;99.90
45319;DHT22;31057;48.498;32.260;2024-02-23T11:13:13;8.70;99.90
45319;DHT22;31057;48.498;32.260;2024-02-23T11:15:30;8.60;99.90
45319;DHT22;31057;48.498;32.260;2024-02-23T11:17:35;8.70;99.90
45319;DHT22;31057;48.498;32.260;2024-02-23T11:19:39;8.70;99.90
45319;DHT22;31057;48.498;32.260;2024-02-23T11:21:42;8.60;99.90
45319;DHT22;31057;48.498;32.260;2024-02-23T11:23:47;8.60;99.90
45319;DHT22;31057;48.498;32.260;2024-02-23T11:26:19;8.70;99.90
45319;DHT22;31057;48.498;32.260;2024-02-23T11:28:24;8.70;99.90
45319;DHT22;31057;48.498;32.260;2024-02-23T11:30:27;8.70;99.90
45319;DHT22;31057;48.498;32.260;2024-02-23T11:32:42;8.70;99.90
45319;DHT22;31057;48.498;32.260;2024-02-23T11:34:55;8.70;99.90
45319;DHT22;31057;48.498;32.260;2024-02-23T11:37:10;8.80;99.90
45319;DHT22;31057;48.498;32.260;2024-02-23T11:39:13;8.80;99.90
45319;DHT22;31057;48.498;32.260;2024-02-23T11:41:16;8.70;99.90
45319;DHT22;31057;48.498;32.260;2024-02-23T11:43:19;8.70;99.90
45319;DHT22;31057;48.498;32.260;2024-02-23T11:45:24;8.70;99.90
45319;DHT22;31057;48.498;32.260;2024-02-23T11:47:26;8.80;99.90
45319;DHT22;31057;48.498;32.260;2024-02-23T11:49:29;8.80;99.90
45319;DHT22;31057;48.498;32.260;2024-02-23T11:51:31;8.80;99.90
45319;DHT22;31057;48.498;32.260;2024-02-23T11:53:33;8.80;99.90
45319;DHT22;31057;48.498;32.260;2024-02-23T11:55:35;8.90;99.90
45319;DHT22;31057;48.498;32.260;2024-02-23T11:57:38;9.00;99.90
45319;DHT22;31057;48.498;32.260;2024-02-23T11:59:50;9.00;99.90
45319;DHT22;31057;48.498;32.260;2024-02-23T12:01:53;9.00;99.90
45319;DHT22;31057;48.498;32.260;2024-02-23T12:03:56;9.00;99.90
45319;DHT22;31057;48.498;32.260;2024-02-23T12:05:58;9.00;99.90
45319;DHT22;31057;48.498;32.260;2024-02-23T12:08:01;8.90;99.90
45319;DHT22;31057;48.498;32.260;2024-02-23T12:10:04;9.00;99.90
45319;DHT22;31057;48.498;32.260;2024-02-23T12:12:08;9.00;99.90
45319;DHT22;31057;48.498;32.260;2024-02-23T12:14:11;9.10;99.90
45319;DHT22;31057;48.498;32.260;2024-02-23T12:16:14;9.20;99.90
45319;DHT22;31057;48.498;32.260;2024-02-23T12:18:16;9.20;99.90
45319;DHT22;31057;48.498;32.260;2024-02-23T12:20:18;9.20;99.90
45319;DHT22;31057;48.498;32.260;2024-02-23T12:22:20;9.40;99.90
45319;DHT22;31057;48.498;32.260;2024-02-23T12:24:26;9.60;99.90
45319;DHT22;31057;48.498;32.260;2024-02-23T12:26:29;9.60;99.90
45319;DHT22;31057;48.498;32.260;2024-02-23T12:28:32;9.50;99.90
45319;DHT22;31057;48.498;32.260;2024-02-23T12:30:35;9.50;99.90
45319;DHT22;31057;48.498;32.260;2024-02-23T12:32:37;9.40;99.90
45319;DHT22;31057;48.498;32.260;2024-02-23T12:34:39;9.40;99.90
45319;DHT22;31057;48.498;32.260;2024-02-23T12:36:41;9.40;99.90
45319;DHT22;31057;48.498;32.260;2024-02-23T12:38:43;9.50;99.90
45319;DHT22;31057;48.498;32.260;2024-02-23T12:40:45;9.50;99.90
45319;DHT22;31057;48.498;32.260;2024-02-23T12:42:47;9.40;99.90
45319;DHT22;31057;48.498;32.260;2024-02-23T12:44:50;9.50;99.90
45319;DHT22;31057;48.498;32.260;2024-02-23T12:46:52;9.50;99.90
45319;DHT22;31057;48.498;32.260;2024-02-23T12:48:54;9.50;99.90
45319;DHT22;31057;48.498;32.260;2024-02-23T12:50:56;9.40;99.90
45319;DHT22;31057;48.498;32.260;2024-02-23T12:52:58;9.50;99.90
45319;DHT22;31057;48.498;32.260;2024-02-23T12:55:01;9.60;99.90
45319;DHT22;31057;48.498;32.260;2024-02-23T12:57:03;9.60;99.90